Time;durP1;ratioP1;P1;durP2;ratioP2;P2;SDS_P1;SDS_P2;PMS_P1;PMS_P2;Temp;Humidity;BMP_temperature;BMP_pressure;BME280_temperature;BME280_humidity;BME280_pressure;Samples;Min_cycle;Max_cycle;Signal;HPM_P1;HPM_P2
2023/06/22 00:01:23;;;;;;;1.23;1.13;;;23.40;71.90;;;;;;5003727;28;20077;-76
2023/06/22 00:03:49;;;;;;;1.08;1.00;;;23.50;71.90;;;;;;5004939;28;20038;-76
2023/06/22 00:06:14;;;;;;;1.30;1.20;;;23.40;71.90;;;;;;5005649;28;20066;-76
2023/06/22 00:08:40;;;;;;;1.20;1.10;;;23.40;71.90;;;;;;5001007;28;20054;-76
2023/06/22 00:11:06;;;;;;;1.10;1.10;;;23.40;71.90;;;;;;4640102;28;9999935;-77
2023/06/22 00:13:31;;;;;;;1.17;1.17;;;23.40;71.90;;;;;;4985739;28;20410;-76
2023/06/22 00:15:58;;;;;;;1.17;0.90;;;23.40;71.90;;;;;;5000227;28;20183;-77
2023/06/22 00:18:27;;;;;;;0.90;0.90;;;23.40;72.00;;;;;;5001252;28;20144;-76
2023/06/22 00:20:57;;;;;;;1.17;1.02;;;23.40;71.90;;;;;;4988075;28;20053;-76
2023/06/22 00:23:23;;;;;;;1.85;1.00;;;23.40;72.00;;;;;;4999311;28;20106;-75
2023/06/22 00:25:49;;;;;;;1.00;1.00;;;23.40;71.90;;;;;;4999064;28;20121;-76
2023/06/22 00:28:15;;;;;;;1.02;0.98;;;23.40;71.70;;;;;;4967083;28;20038;-75
2023/06/22 00:30:40;;;;;;;2.28;1.05;;;23.40;72.00;;;;;;4998930;28;20121;-75
2023/06/22 00:33:07;;;;;;;1.05;1.00;;;23.40;72.10;;;;;;4998988;28;20030;-76
2023/06/22 00:35:33;;;;;;;1.20;1.00;;;23.40;72.70;;;;;;4651154;28;10000507;-76
2023/06/22 00:38:03;;;;;;;0.77;0.77;;;23.40;71.90;;;;;;5000028;28;20041;-76
2023/06/22 00:40:30;;;;;;;2.55;0.98;;;23.40;71.80;;;;;;5002377;28;20091;-76
2023/06/22 00:42:55;;;;;;;1.08;0.98;;;23.40;71.90;;;;;;5018458;28;20444;-76
2023/06/22 00:45:24;;;;;;;0.80;0.80;;;23.40;71.80;;;;;;5002994;28;20585;-76
2023/06/22 00:47:53;;;;;;;3.03;1.30;;;23.40;71.80;;;;;;5003663;28;20110;-76
2023/06/22 00:50:21;;;;;;;1.33;1.13;;;23.40;71.80;;;;;;5017775;28;20507;-75
2023/06/22 00:52:52;;;;;;;1.58;0.77;;;23.40;72.60;;;;;;5003140;28;20550;-76
2023/06/22 00:55:19;;;;;;;1.52;1.08;;;23.40;71.70;;;;;;5005832;28;20042;-76
2023/06/22 00:57:48;;;;;;;0.90;0.90;;;23.40;71.70;;;;;;5003349;28;20516;-76
2023/06/22 01:00:17;;;;;;;1.00;1.00;;;23.40;71.70;;;;;;5003199;28;20061;-76
2023/06/22 01:02:45;;;;;;;2.40;0.82;;;23.40;71.60;;;;;;5002331;28;20050;-75
2023/06/22 01:05:13;;;;;;;1.10;1.10;;;23.40;71.60;;;;;;4987525;28;20034;-76
2023/06/22 01:07:58;;;;;;;2.92;1.05;;;23.40;71.60;;;;;;5002041;28;20046;-76
2023/06/22 01:10:35;;;;;;;0.90;0.90;;;23.40;71.70;;;;;;5004227;28;20038;-76
2023/06/22 01:13:11;;;;;;;0.98;0.98;;;23.40;71.80;;;;;;5002933;28;20610;-76
2023/06/22 01:15:39;;;;;;;1.40;1.00;;;23.40;72.40;;;;;;5005184;28;20088;-76
2023/06/22 01:18:05;;;;;;;1.00;1.00;;;23.40;72.20;;;;;;5004101;28;20557;-76
2023/06/22 01:20:31;;;;;;;0.90;0.90;;;23.40;72.20;;;;;;5006673;28;20041;-76
2023/06/22 01:23:02;;;;;;;1.25;1.25;;;23.40;72.30;;;;;;4991083;28;20125;-76
2023/06/22 01:25:31;;;;;;;1.52;1.00;;;23.40;72.30;;;;;;5006335;28;20440;-76
2023/06/22 01:28:35;;;;;;;1.88;1.00;;;23.40;72.40;;;;;;5004139;28;20061;-76
2023/06/22 01:31:05;;;;;;;0.93;0.90;;;23.40;72.00;;;;;;5001100;28;20088;-76
2023/06/22 01:33:35;;;;;;;1.00;1.00;;;23.40;71.90;;;;;;5006866;28;20515;-76
2023/06/22 01:36:01;;;;;;;0.93;0.90;;;23.40;71.90;;;;;;5005925;28;20065;-76
2023/06/22 01:38:28;;;;;;;1.02;1.02;;;23.40;71.90;;;;;;5002668;28;20058;-76
2023/06/22 01:40:53;;;;;;;1.83;0.90;;;23.40;71.90;;;;;;5006589;28;20045;-75
2023/06/22 01:43:21;;;;;;;0.80;0.80;;;23.40;72.70;;;;;;5004984;28;20373;-76
2023/06/22 01:45:46;;;;;;;0.98;0.90;;;23.40;71.80;;;;;;4987043;28;20423;-76
2023/06/22 01:48:12;;;;;;;0.90;0.90;;;23.40;71.70;;;;;;5008097;28;20050;-76
2023/06/22 01:50:37;;;;;;;0.80;0.80;;;23.40;71.60;;;;;;5007416;28;20534;-76
2023/06/22 01:53:03;;;;;;;1.77;1.00;;;23.40;72.40;;;;;;5006166;28;20399;-77
2023/06/22 01:55:28;;;;;;;0.77;0.77;;;23.40;71.60;;;;;;5002979;28;20045;-76
2023/06/22 01:57:54;;;;;;;0.82;0.82;;;23.40;71.50;;;;;;5007676;28;20121;-76
2023/06/22 02:00:22;;;;;;;1.42;1.00;;;23.40;72.30;;;;;;4989844;28;20046;-75
2023/06/22 02:03:10;;;;;;;0.73;0.73;;;23.40;71.70;;;;;;5018742;28;20075;-76
2023/06/22 02:05:38;;;;;;;0.80;0.80;;;23.40;71.70;;;;;;5005851;28;20046;-76
2023/06/22 02:08:25;;;;;;;0.95;0.95;;;23.40;71.70;;;;;;5005917;28;20034;-76
2023/06/22 02:10:51;;;;;;;0.80;0.80;;;23.40;71.70;;;;;;5003682;28;20041;-76
2023/06/22 02:13:16;;;;;;;0.80;0.80;;;23.30;71.40;;;;;;5017726;28;20052;-76
2023/06/22 02:15:42;;;;;;;0.80;0.80;;;23.30;71.60;;;;;;5004665;28;20050;-76
2023/06/22 02:18:08;;;;;;;0.80;0.80;;;23.40;71.50;;;;;;5007644;28;20029;-76
2023/06/22 02:20:37;;;;;;;0.80;0.80;;;23.30;71.50;;;;;;5017187;28;20069;-76
2023/06/22 02:23:02;;;;;;;0.90;0.90;;;23.30;71.50;;;;;;5019133;28;20538;-76
2023/06/22 02:25:28;;;;;;;0.90;0.90;;;23.30;71.30;;;;;;5003590;28;20046;-76
2023/06/22 02:27:53;;;;;;;1.13;1.13;;;23.40;71.70;;;;;;4989697;28;20125;-76
2023/06/22 02:30:19;;;;;;;0.85;0.85;;;23.40;71.60;;;;;;5005705;28;20046;-75
2023/06/22 02:32:44;;;;;;;0.93;0.90;;;23.30;71.50;;;;;;5017921;28;20042;-76
2023/06/22 02:35:10;;;;;;;1.08;0.90;;;23.30;71.60;;;;;;5002742;28;20058;-75
2023/06/22 02:37:41;;;;;;;0.82;0.82;;;23.30;71.60;;;;;;5005198;28;20042;-75
2023/06/22 02:40:08;;;;;;;0.95;0.70;;;23.30;71.50;;;;;;5005332;28;20104;-76
2023/06/22 02:42:34;;;;;;;0.90;0.90;;;23.30;71.60;;;;;;5006504;28;20068;-76
2023/06/22 02:45:00;;;;;;;0.68;0.68;;;23.30;71.50;;;;;;5004673;28;20033;-76
2023/06/22 02:47:26;;;;;;;0.85;0.82;;;23.30;71.50;;;;;;4988387;28;20491;-76
2023/06/22 02:49:51;;;;;;;0.88;0.88;;;23.30;71.50;;;;;;5004909;28;20045;-76
2023/06/22 02:52:17;;;;;;;0.52;0.52;;;23.30;71.50;;;;;;5003650;28;20101;-76
2023/06/22 02:54:45;;;;;;;0.90;0.90;;;23.30;71.50;;;;;;5003060;28;20050;-76
2023/06/22 02:57:13;;;;;;;0.80;0.80;;;23.30;71.50;;;;;;5007045;28;20046;-76
2023/06/22 02:59:41;;;;;;;0.90;0.90;;;23.30;71.50;;;;;;5005263;28;20520;-76
2023/06/22 03:02:07;;;;;;;0.85;0.85;;;23.30;71.50;;;;;;5007614;28;20054;-76
2023/06/22 03:04:34;;;;;;;0.88;0.88;;;23.30;71.60;;;;;;5004473;28;20053;-76
2023/06/22 03:07:01;;;;;;;1.15;1.15;;;23.30;72.40;;;;;;4994981;28;20042;-76
2023/06/22 03:09:27;;;;;;;0.90;0.90;;;23.30;71.60;;;;;;5020357;28;20073;-76
2023/06/22 03:11:55;;;;;;;1.00;1.00;;;23.30;72.10;;;;;;5003653;28;20026;-76
2023/06/22 03:14:21;;;;;;;0.90;0.90;;;23.30;71.70;;;;;;5001890;28;20049;-76
2023/06/22 03:16:47;;;;;;;0.70;0.70;;;23.30;71.70;;;;;;5004612;28;20038;-76
2023/06/22 03:19:13;;;;;;;0.80;0.80;;;23.30;71.60;;;;;;5004664;28;20026;-76
2023/06/22 03:21:39;;;;;;;0.80;0.80;;;23.30;71.60;;;;;;5002942;28;20082;-76
2023/06/22 03:24:05;;;;;;;0.90;0.90;;;23.30;71.50;;;;;;5002369;28;20039;-76
2023/06/22 03:26:31;;;;;;;0.90;0.90;;;23.30;71.40;;;;;;5004752;28;20728;-76
2023/06/22 03:28:56;;;;;;;0.85;0.85;;;23.30;71.30;;;;;;4987873;28;20030;-76
2023/06/22 03:31:22;;;;;;;0.65;0.65;;;23.30;71.30;;;;;;5005117;28;20612;-76
2023/06/22 03:33:49;;;;;;;2.05;1.05;;;23.30;71.30;;;;;;5000703;28;20400;-76
2023/06/22 03:36:18;;;;;;;0.82;0.82;;;23.30;72.10;;;;;;5004473;28;20062;-76
2023/06/22 03:38:45;;;;;;;1.00;0.90;;;23.30;71.40;;;;;;4988649;28;20099;-76
2023/06/22 03:41:10;;;;;;;0.77;0.77;;;23.30;71.50;;;;;;5001193;28;20037;-76
2023/06/22 03:43:36;;;;;;;0.70;0.70;;;23.30;71.40;;;;;;5004349;28;20553;-76
2023/06/22 03:46:01;;;;;;;1.00;1.00;;;23.30;72.10;;;;;;5005183;28;20041;-76
2023/06/22 03:48:27;;;;;;;0.82;0.82;;;23.30;71.30;;;;;;5002833;28;20073;-76
2023/06/22 03:50:52;;;;;;;0.70;0.70;;;23.30;71.30;;;;;;5017357;28;20026;-76
2023/06/22 03:53:18;;;;;;;1.00;1.00;;;23.30;71.30;;;;;;5002856;28;20376;-76
2023/06/22 03:55:50;;;;;;;0.80;0.80;;;23.20;71.20;;;;;;5002924;28;20537;-76
2023/06/22 03:58:16;;;;;;;0.82;0.80;;;23.30;71.30;;;;;;4998984;28;20050;-76
2023/06/22 04:00:42;;;;;;;0.80;0.80;;;23.30;71.30;;;;;;5005586;28;20168;-76
2023/06/22 04:03:07;;;;;;;0.82;0.82;;;23.30;71.30;;;;;;4990453;28;20129;-76
2023/06/22 04:05:33;;;;;;;0.75;0.75;;;23.30;71.30;;;;;;5004049;28;20042;-76
2023/06/22 04:07:58;;;;;;;0.70;0.70;;;23.30;71.30;;;;;;5003208;28;20091;-76
2023/06/22 04:10:24;;;;;;;1.00;1.00;;;23.30;71.30;;;;;;5004311;28;20038;-76
2023/06/22 04:12:49;;;;;;;0.73;0.70;;;23.20;72.00;;;;;;5001785;28;20467;-76
2023/06/22 04:15:15;;;;;;;0.80;0.80;;;23.30;71.30;;;;;;5019583;28;20076;-76
2023/06/22 04:17:41;;;;;;;0.80;0.80;;;23.20;71.20;;;;;;5003413;28;20057;-76
2023/06/22 04:20:07;;;;;;;0.80;0.80;;;23.20;71.20;;;;;;5002553;28;20049;-76
2023/06/22 04:22:33;;;;;;;0.70;0.70;;;23.20;71.90;;;;;;5018231;28;20077;-76
2023/06/22 04:24:58;;;;;;;0.75;0.75;;;23.20;71.20;;;;;;5003771;28;20042;-76
2023/06/22 04:27:24;;;;;;;0.90;0.90;;;23.30;71.30;;;;;;5003944;28;20080;-76
2023/06/22 04:29:51;;;;;;;0.80;0.80;;;23.20;71.20;;;;;;5005788;28;20042;-75
2023/06/22 04:32:16;;;;;;;0.88;0.88;;;23.20;71.10;;;;;;5004850;28;20495;-76
2023/06/22 04:34:42;;;;;;;0.90;0.90;;;23.20;71.20;;;;;;4986511;28;21419;-76
2023/06/22 04:37:08;;;;;;;0.85;0.85;;;23.20;71.20;;;;;;5004166;28;20061;-76
2023/06/22 04:39:34;;;;;;;1.00;1.00;;;23.20;71.20;;;;;;5004050;28;20519;-76
2023/06/22 04:42:00;;;;;;;0.77;0.77;;;23.20;71.20;;;;;;5008747;28;20095;-76
2023/06/22 04:44:26;;;;;;;0.90;0.90;;;23.20;71.10;;;;;;4990791;28;20057;-76
2023/06/22 04:47:03;;;;;;;0.95;0.95;;;23.20;71.20;;;;;;5008461;28;20033;-76
2023/06/22 04:49:32;;;;;;;1.00;1.00;;;23.20;71.20;;;;;;5006121;28;20066;-75
2023/06/22 04:52:02;;;;;;;0.70;0.70;;;23.20;71.10;;;;;;4988934;28;20034;-76
2023/06/22 04:54:28;;;;;;;0.70;0.70;;;23.20;71.10;;;;;;5005392;28;20034;-76
2023/06/22 04:56:56;;;;;;;0.80;0.80;;;23.20;71.20;;;;;;5008201;28;20037;-76
2023/06/22 04:59:29;;;;;;;0.90;0.90;;;23.20;71.20;;;;;;5006680;28;20049;-76
2023/06/22 05:01:58;;;;;;;1.17;1.17;;;23.20;71.20;;;;;;5008131;28;20531;-76
2023/06/22 05:04:24;;;;;;;0.60;0.60;;;23.20;71.20;;;;;;5006599;28;20288;-76
2023/06/22 05:06:53;;;;;;;1.13;0.80;;;23.20;71.10;;;;;;5006765;28;20099;-76
2023/06/22 05:09:19;;;;;;;0.80;0.80;;;23.20;71.10;;;;;;5022444;28;20049;-76
2023/06/22 05:11:45;;;;;;;0.70;0.70;;;23.20;71.10;;;;;;5018078;28;20053;-76
2023/06/22 05:14:10;;;;;;;0.98;0.98;;;23.20;71.10;;;;;;4995670;28;20073;-76
2023/06/22 05:16:37;;;;;;;0.60;0.60;;;23.20;71.10;;;;;;5006732;28;20443;-76
2023/06/22 05:19:03;;;;;;;0.80;0.80;;;23.20;72.00;;;;;;4989397;28;20595;-76
2023/06/22 05:21:29;;;;;;;0.70;0.70;;;23.20;71.20;;;;;;5004676;28;20490;-76
2023/06/22 05:23:55;;;;;;;0.77;0.77;;;23.20;71.10;;;;;;5010216;28;20049;-76
2023/06/22 05:26:21;;;;;;;0.80;0.80;;;23.20;71.10;;;;;;5008523;28;20038;-77
2023/06/22 05:28:47;;;;;;;0.80;0.80;;;23.20;71.10;;;;;;5007249;28;20048;-76
2023/06/22 05:31:14;;;;;;;0.85;0.85;;;23.20;71.20;;;;;;5006826;28;20058;-76
2023/06/22 05:33:40;;;;;;;0.70;0.70;;;23.20;71.10;;;;;;5007478;28;20428;-76
2023/06/22 05:36:06;;;;;;;0.70;0.70;;;23.20;71.10;;;;;;5011696;28;20557;-76
2023/06/22 05:38:32;;;;;;;0.98;0.98;;;23.20;71.10;;;;;;5008657;28;20069;-76
2023/06/22 05:40:57;;;;;;;0.80;0.70;;;23.20;71.10;;;;;;5006250;28;20052;-76
2023/06/22 05:43:23;;;;;;;0.70;0.70;;;23.20;71.10;;;;;;4989652;28;20065;-76
2023/06/22 05:45:48;;;;;;;0.70;0.70;;;23.10;71.00;;;;;;5004723;28;20507;-76
2023/06/22 05:48:14;;;;;;;0.70;0.70;;;23.20;71.10;;;;;;5021942;28;20121;-76
2023/06/22 05:50:39;;;;;;;0.82;0.82;;;23.20;71.10;;;;;;5003950;28;20038;-76
2023/06/22 05:53:06;;;;;;;0.80;0.80;;;23.20;71.10;;;;;;5005972;28;20033;-76
2023/06/22 05:55:32;;;;;;;0.70;0.70;;;23.20;71.10;;;;;;5004302;28;20405;-76
2023/06/22 05:57:58;;;;;;;0.70;0.70;;;23.10;71.00;;;;;;5006984;28;20053;-76
2023/06/22 06:00:24;;;;;;;0.73;0.73;;;23.10;71.10;;;;;;5006805;28;20046;-76
2023/06/22 06:02:49;;;;;;;0.60;0.60;;;23.10;70.90;;;;;;5006696;28;20100;-76
2023/06/22 06:05:16;;;;;;;1.02;0.88;;;23.20;71.00;;;;;;5006735;28;20053;-76
2023/06/22 06:07:42;;;;;;;0.77;0.77;;;23.10;71.00;;;;;;5003407;28;20152;-76
2023/06/22 06:10:08;;;;;;;0.70;0.70;;;23.20;71.10;;;;;;5019220;28;20085;-76
2023/06/22 06:12:33;;;;;;;0.93;0.93;;;23.20;71.10;;;;;;5000070;28;20064;-75
2023/06/22 06:14:59;;;;;;;0.63;0.63;;;23.20;71.10;;;;;;5002681;28;20046;-76
2023/06/22 06:17:24;;;;;;;0.88;0.88;;;23.20;71.20;;;;;;4998227;28;20074;-76
2023/06/22 06:19:50;;;;;;;0.60;0.60;;;23.20;71.10;;;;;;4997532;28;20041;-75
2023/06/22 06:22:16;;;;;;;0.63;0.63;;;23.10;71.00;;;;;;4995792;28;20100;-76
2023/06/22 06:24:41;;;;;;;0.70;0.70;;;23.20;71.10;;;;;;4999297;28;20046;-76
2023/06/22 06:27:08;;;;;;;0.75;0.75;;;23.20;72.00;;;;;;5015559;28;20050;-75
2023/06/22 06:29:33;;;;;;;0.68;0.68;;;23.20;71.20;;;;;;5011787;28;20103;-76
2023/06/22 06:31:59;;;;;;;0.63;0.63;;;23.10;71.10;;;;;;4982714;28;20439;-76
2023/06/22 06:34:24;;;;;;;0.60;0.60;;;23.20;71.90;;;;;;4998172;28;20145;-76
2023/06/22 06:36:50;;;;;;;0.88;0.88;;;23.20;71.10;;;;;;4998122;28;20026;-76
2023/06/22 06:39:16;;;;;;;1.00;1.00;;;23.20;71.10;;;;;;5016087;28;20431;-75
2023/06/22 06:41:42;;;;;;;0.68;0.68;;;23.20;71.20;;;;;;4999242;28;20092;-76
2023/06/22 06:44:07;;;;;;;0.80;0.80;;;23.10;71.10;;;;;;5004743;28;20050;-75
2023/06/22 06:46:33;;;;;;;0.70;0.70;;;23.20;71.20;;;;;;5005440;28;20053;-76
2023/06/22 06:48:58;;;;;;;0.85;0.85;;;23.10;71.10;;;;;;5005479;28;20104;-76
2023/06/22 06:51:24;;;;;;;0.90;0.90;;;23.10;71.20;;;;;;5005087;28;20137;-76
2023/06/22 06:53:49;;;;;;;1.00;1.00;;;23.10;71.10;;;;;;5019071;28;20397;-76
2023/06/22 06:56:15;;;;;;;0.90;0.90;;;23.20;71.10;;;;;;5005859;28;20092;-76
2023/06/22 06:58:42;;;;;;;0.82;0.82;;;23.10;71.00;;;;;;5005063;28;20042;-76
2023/06/22 07:01:08;;;;;;;0.77;0.77;;;23.20;71.10;;;;;;5005837;28;20080;-76
2023/06/22 07:03:33;;;;;;;0.60;0.60;;;23.10;71.00;;;;;;5002769;28;20041;-76
2023/06/22 07:05:59;;;;;;;0.68;0.68;;;23.20;71.10;;;;;;5020605;28;20061;-76
2023/06/22 07:08:25;;;;;;;0.88;0.88;;;23.20;71.10;;;;;;5004641;28;20038;-76
2023/06/22 07:10:52;;;;;;;0.70;0.70;;;23.20;71.00;;;;;;5004978;28;20060;-75
2023/06/22 07:13:17;;;;;;;0.85;0.85;;;23.20;71.10;;;;;;5004787;28;22530;-75
2023/06/22 07:15:43;;;;;;;0.82;0.82;;;23.20;71.00;;;;;;5001938;28;20060;-76
2023/06/22 07:18:09;;;;;;;0.73;0.73;;;23.20;71.00;;;;;;5022473;28;20571;-75
2023/06/22 07:20:34;;;;;;;0.60;0.60;;;23.20;71.00;;;;;;4994903;28;20039;-76
2023/06/22 07:23:00;;;;;;;0.82;0.82;;;23.20;70.90;;;;;;5001528;28;20072;-76
2023/06/22 07:25:25;;;;;;;1.00;1.00;;;23.20;70.90;;;;;;5005248;28;20069;-76
2023/06/22 07:28:02;;;;;;;1.00;1.00;;;23.20;71.00;;;;;;5005635;28;20121;-76
2023/06/22 07:30:27;;;;;;;0.77;0.77;;;23.30;71.20;;;;;;5002190;28;20042;-76
2023/06/22 07:32:53;;;;;;;1.13;1.13;;;23.30;71.20;;;;;;5004000;28;20037;-76
2023/06/22 07:35:19;;;;;;;0.50;0.50;;;23.20;71.10;;;;;;5006408;28;20466;-76
2023/06/22 07:37:44;;;;;;;0.80;0.80;;;23.20;71.10;;;;;;5003947;28;20078;-76
2023/06/22 07:40:10;;;;;;;0.68;0.68;;;23.30;71.10;;;;;;5005288;28;20515;-76
2023/06/22 07:42:36;;;;;;;0.68;0.68;;;23.20;70.90;;;;;;5002879;28;20412;-76
2023/06/22 07:45:03;;;;;;;0.70;0.70;;;23.20;70.90;;;;;;5007718;28;20062;-76
2023/06/22 07:47:28;;;;;;;0.50;0.50;;;23.30;70.90;;;;;;5001552;28;20053;-76
2023/06/22 07:50:00;;;;;;;0.80;0.80;;;23.30;71.10;;;;;;4998860;28;20046;-76
2023/06/22 07:52:26;;;;;;;0.60;0.60;;;23.20;71.20;;;;;;4985618;28;20042;-76
2023/06/22 07:54:52;;;;;;;0.80;0.80;;;23.30;71.00;;;;;;4995810;28;20053;-76
2023/06/22 07:57:18;;;;;;;0.70;0.70;;;23.30;71.00;;;;;;5005363;28;20122;-76
2023/06/22 07:59:44;;;;;;;0.60;0.60;;;23.30;71.90;;;;;;5004650;28;20052;-75
2023/06/22 08:02:09;;;;;;;0.77;0.77;;;23.30;71.20;;;;;;5006502;28;20030;-76
2023/06/22 08:04:35;;;;;;;0.60;0.60;;;23.30;71.20;;;;;;5019406;28;20125;-76
2023/06/22 08:07:01;;;;;;;0.90;0.90;;;23.30;70.80;;;;;;5001723;28;20043;-75
2023/06/22 08:09:30;;;;;;;0.80;0.80;;;23.30;70.80;;;;;;5003654;28;20104;-77
2023/06/22 08:11:56;;;;;;;0.52;0.52;;;23.30;70.70;;;;;;5005474;28;20499;-76
2023/06/22 08:14:23;;;;;;;0.73;0.73;;;23.30;70.70;;;;;;5004998;28;20060;-76
2023/06/22 08:16:48;;;;;;;0.60;0.60;;;23.30;70.90;;;;;;5004049;28;20064;-76
2023/06/22 08:19:14;;;;;;;0.70;0.70;;;23.30;70.80;;;;;;5002642;28;20157;-77
2023/06/22 08:21:40;;;;;;;0.70;0.70;;;23.30;71.00;;;;;;4966374;28;20532;-76
2023/06/22 08:24:07;;;;;;;0.77;0.77;;;23.30;70.70;;;;;;4991321;28;20348;-75
2023/06/22 08:26:35;;;;;;;0.75;0.75;;;23.30;70.60;;;;;;5004177;28;20049;-76
2023/06/22 08:29:02;;;;;;;1.00;1.00;;;23.30;70.70;;;;;;5005942;28;20053;-76
2023/06/22 08:31:27;;;;;;;0.65;0.65;;;23.30;70.50;;;;;;5002123;28;20100;-75
2023/06/22 08:33:53;;;;;;;0.70;0.70;;;23.40;70.70;;;;;;5004392;28;20474;-76
2023/06/22 08:36:18;;;;;;;0.90;0.90;;;23.40;70.60;;;;;;5003815;28;20073;-75
2023/06/22 08:38:44;;;;;;;0.80;0.80;;;23.30;71.40;;;;;;5001164;28;20107;-76
2023/06/22 08:41:10;;;;;;;0.52;0.52;;;23.40;70.70;;;;;;5004244;28;20050;-76
2023/06/22 08:43:36;;;;;;;0.80;0.80;;;23.40;70.70;;;;;;4987602;28;20042;-76
2023/06/22 08:46:02;;;;;;;0.88;0.88;;;23.40;70.70;;;;;;5004365;28;20094;-75
2023/06/22 08:48:28;;;;;;;0.60;0.60;;;23.40;70.70;;;;;;5005943;28;20050;-76
2023/06/22 08:50:54;;;;;;;0.90;0.90;;;23.40;70.70;;;;;;5003768;28;20601;-75
2023/06/22 08:53:19;;;;;;;0.90;0.90;;;23.40;70.90;;;;;;5002816;28;20515;-75
2023/06/22 08:55:45;;;;;;;0.85;0.85;;;23.40;71.10;;;;;;5003262;28;20045;-75
2023/06/22 08:58:11;;;;;;;0.90;0.90;;;23.40;71.10;;;;;;5003567;28;20996;-75
2023/06/22 09:00:37;;;;;;;0.70;0.70;;;23.40;71.00;;;;;;5001597;28;20050;-75
2023/06/22 09:03:02;;;;;;;2.15;0.82;;;23.50;71.00;;;;;;5003950;28;20038;-75
2023/06/22 09:05:29;;;;;;;1.58;0.60;;;23.40;71.10;;;;;;5004089;28;20034;-75
2023/06/22 09:07:56;;;;;;;1.02;0.95;;;23.40;70.90;;;;;;5016720;28;20046;-75
2023/06/22 09:10:22;;;;;;;0.70;0.70;;;23.50;70.90;;;;;;5003197;28;20478;-75
2023/06/22 09:12:47;;;;;;;0.77;0.77;;;23.50;70.90;;;;;;5000711;28;20546;-75
2023/06/22 09:15:13;;;;;;;2.60;0.70;;;23.50;70.90;;;;;;5004683;28;20451;-75
2023/06/22 09:17:40;;;;;;;0.93;0.73;;;23.50;70.90;;;;;;5001087;28;20093;-75
2023/06/22 09:20:07;;;;;;;0.95;0.95;;;23.50;70.80;;;;;;5016383;28;20073;-75
2023/06/22 09:22:32;;;;;;;0.88;0.88;;;23.50;70.90;;;;;;5001991;28;20053;-75
2023/06/22 09:24:59;;;;;;;0.70;0.70;;;23.50;70.80;;;;;;5001123;28;20049;-75
2023/06/22 09:27:25;;;;;;;1.00;1.00;;;23.50;70.80;;;;;;5007232;28;20401;-75
2023/06/22 09:29:50;;;;;;;0.73;0.73;;;23.50;70.80;;;;;;4991053;28;23152;-75
2023/06/22 09:32:16;;;;;;;0.77;0.77;;;23.50;70.80;;;;;;4986325;28;20039;-75
2023/06/22 09:34:42;;;;;;;0.80;0.80;;;23.50;70.70;;;;;;4987137;28;20426;-75
2023/06/22 09:37:07;;;;;;;1.00;1.00;;;23.60;70.70;;;;;;5016471;28;20061;-75
2023/06/22 09:39:33;;;;;;;0.80;0.80;;;23.60;70.60;;;;;;5006870;28;20045;-76
2023/06/22 09:42:00;;;;;;;0.82;0.82;;;23.60;70.70;;;;;;5006583;28;20050;-75
2023/06/22 09:44:25;;;;;;;0.70;0.70;;;23.60;70.60;;;;;;5006809;28;20050;-75
2023/06/22 09:46:51;;;;;;;0.93;0.70;;;23.60;70.60;;;;;;5005587;28;20128;-75
2023/06/22 09:49:16;;;;;;;0.80;0.80;;;23.60;70.50;;;;;;5006681;28;20531;-75
2023/06/22 09:51:42;;;;;;;1.00;0.73;;;23.60;70.50;;;;;;5017625;28;20500;-75
2023/06/22 09:54:07;;;;;;;1.10;1.00;;;23.60;70.50;;;;;;5008123;28;20045;-75
2023/06/22 09:56:33;;;;;;;0.80;0.80;;;23.60;70.50;;;;;;5005539;28;20096;-76
2023/06/22 09:58:59;;;;;;;0.88;0.88;;;23.60;70.40;;;;;;5002465;28;20519;-75
2023/06/22 10:01:24;;;;;;;1.40;0.88;;;23.60;70.50;;;;;;4985985;28;20121;-75
2023/06/22 10:03:54;;;;;;;1.25;0.95;;;23.60;70.50;;;;;;5001633;28;20573;-75
2023/06/22 10:06:19;;;;;;;1.15;0.80;;;23.60;70.40;;;;;;5019351;28;20065;-75
2023/06/22 10:08:45;;;;;;;1.05;1.05;;;23.60;70.40;;;;;;5005520;28;20505;-75
2023/06/22 10:11:11;;;;;;;0.90;0.90;;;23.60;70.30;;;;;;5004456;28;20042;-75
2023/06/22 10:13:36;;;;;;;1.00;1.00;;;23.60;70.40;;;;;;5003732;28;20519;-76
2023/06/22 10:16:02;;;;;;;1.10;0.88;;;23.70;70.40;;;;;;4989733;28;20049;-75
2023/06/22 10:18:27;;;;;;;0.90;0.90;;;23.70;70.40;;;;;;5003253;28;20460;-75
2023/06/22 10:20:53;;;;;;;1.08;1.08;;;23.60;70.40;;;;;;4989582;28;20037;-75
2023/06/22 10:23:19;;;;;;;0.93;0.93;;;23.70;70.40;;;;;;5003208;28;20103;-75
2023/06/22 10:25:45;;;;;;;1.15;1.10;;;23.70;70.30;;;;;;5000550;28;20042;-75
2023/06/22 10:28:10;;;;;;;1.15;1.10;;;23.70;70.30;;;;;;5007814;28;20101;-75
2023/06/22 10:30:36;;;;;;;1.30;1.20;;;23.70;70.30;;;;;;5003476;28;20062;-76
2023/06/22 10:33:01;;;;;;;1.27;1.15;;;23.70;70.30;;;;;;5008489;28;20046;-75
2023/06/22 10:35:27;;;;;;;1.10;1.10;;;23.70;70.20;;;;;;5004934;28;20123;-75
2023/06/22 10:37:54;;;;;;;1.20;1.20;;;23.70;70.10;;;;;;5004315;28;20030;-75
2023/06/22 10:40:20;;;;;;;1.20;1.17;;;23.70;70.10;;;;;;5003721;28;20045;-74
2023/06/22 10:42:45;;;;;;;1.02;1.02;;;23.70;71.00;;;;;;5004626;28;20038;-75
2023/06/22 10:45:11;;;;;;;1.10;1.10;;;23.70;70.10;;;;;;5008478;28;20061;-75
2023/06/22 10:47:37;;;;;;;0.80;0.80;;;23.70;70.10;;;;;;5017290;28;20503;-75
2023/06/22 10:50:03;;;;;;;0.98;0.98;;;23.70;70.10;;;;;;5005439;28;20057;-75
2023/06/22 10:52:28;;;;;;;1.00;1.00;;;23.80;70.10;;;;;;4989682;28;20129;-75
2023/06/22 10:54:54;;;;;;;1.10;1.10;;;23.70;70.00;;;;;;5003982;28;20789;-75
2023/06/22 10:57:19;;;;;;;1.27;1.17;;;23.70;70.00;;;;;;5021565;28;20041;-75
2023/06/22 10:59:45;;;;;;;1.13;1.10;;;23.80;70.00;;;;;;5004429;28;20038;-75
2023/06/22 11:02:10;;;;;;;0.80;0.80;;;23.80;70.00;;;;;;5019731;28;20034;-75
2023/06/22 11:04:36;;;;;;;1.00;1.00;;;23.70;70.10;;;;;;5004531;28;20046;-76
2023/06/22 11:07:01;;;;;;;0.90;0.90;;;23.70;70.00;;;;;;5003210;28;20083;-75
2023/06/22 11:09:27;;;;;;;0.88;0.88;;;23.80;70.00;;;;;;5006029;28;20514;-74
2023/06/22 11:11:55;;;;;;;3.30;1.40;;;23.80;69.90;;;;;;5003679;28;20045;-75
2023/06/22 11:14:22;;;;;;;1.13;1.13;;;23.80;70.00;;;;;;5005443;28;20467;-75
2023/06/22 11:16:47;;;;;;;0.90;0.90;;;23.80;69.90;;;;;;5003994;28;20117;-75
2023/06/22 11:19:13;;;;;;;1.30;1.30;;;23.80;69.90;;;;;;5004857;28;20121;-75
2023/06/22 11:21:38;;;;;;;0.95;0.93;;;23.80;69.80;;;;;;4986752;28;20049;-75
2023/06/22 11:24:04;;;;;;;0.90;0.90;;;23.80;69.80;;;;;;5006131;28;20042;-75
2023/06/22 11:26:31;;;;;;;1.10;1.10;;;23.80;69.80;;;;;;5004194;28;20042;-75
2023/06/22 11:28:57;;;;;;;0.90;0.90;;;23.90;69.80;;;;;;5004629;28;20041;-75
2023/06/22 11:31:23;;;;;;;0.90;0.90;;;23.80;69.80;;;;;;5005010;28;20038;-75
2023/06/22 11:33:48;;;;;;;0.90;0.90;;;23.80;69.80;;;;;;5019622;28;20115;-75
2023/06/22 11:36:14;;;;;;;0.90;0.90;;;23.80;69.80;;;;;;5006858;28;20041;-75
2023/06/22 11:38:39;;;;;;;0.98;0.98;;;23.80;69.70;;;;;;5003998;28;20050;-75
2023/06/22 11:41:08;;;;;;;0.90;0.90;;;23.80;69.80;;;;;;5016142;28;20411;-75
2023/06/22 11:43:34;;;;;;;1.10;1.10;;;23.80;69.70;;;;;;5002145;28;20160;-75
2023/06/22 11:46:02;;;;;;;0.80;0.80;;;23.80;70.10;;;;;;5003712;28;20541;-75
2023/06/22 11:48:28;;;;;;;0.65;0.65;;;23.80;69.70;;;;;;5002259;28;20069;-75
2023/06/22 11:50:54;;;;;;;1.20;1.08;;;23.90;70.50;;;;;;5003462;28;20046;-76
2023/06/22 11:53:21;;;;;;;1.13;1.02;;;23.90;69.70;;;;;;5003518;28;20034;-75
2023/06/22 11:55:47;;;;;;;0.80;0.80;;;23.90;69.70;;;;;;4987612;28;20156;-76
2023/06/22 11:58:12;;;;;;;0.90;0.90;;;23.90;69.80;;;;;;5002658;28;20133;-75
2023/06/22 12:00:38;;;;;;;1.02;1.02;;;23.90;69.70;;;;;;5003997;28;20058;-75
2023/06/22 12:03:04;;;;;;;0.88;0.88;;;23.90;69.70;;;;;;5004850;28;20061;-76
2023/06/22 12:05:29;;;;;;;0.93;0.93;;;23.90;69.80;;;;;;4988038;28;20041;-75
2023/06/22 12:07:55;;;;;;;0.90;0.90;;;23.90;69.90;;;;;;5003204;28;20042;-76
2023/06/22 12:10:25;;;;;;;0.93;0.93;;;23.90;69.90;;;;;;5004021;28;20037;-76
2023/06/22 12:12:51;;;;;;;0.90;0.90;;;23.90;69.80;;;;;;4984606;28;20050;-76
2023/06/22 12:15:16;;;;;;;1.10;1.10;;;23.90;69.90;;;;;;5004687;28;20044;-75
2023/06/22 12:17:42;;;;;;;0.90;0.90;;;23.90;69.90;;;;;;5003897;28;20515;-77
2023/06/22 12:20:08;;;;;;;1.10;0.80;;;24.00;70.10;;;;;;5003880;28;20054;-73
2023/06/22 12:22:34;;;;;;;1.10;1.10;;;23.90;69.90;;;;;;5004420;28;20042;-75
2023/06/22 12:25:00;;;;;;;1.10;1.10;;;24.00;70.00;;;;;;5000969;28;20484;-73
2023/06/22 12:27:25;;;;;;;1.13;1.13;;;24.00;70.00;;;;;;5002868;28;20089;-75
2023/06/22 12:29:51;;;;;;;1.10;1.10;;;23.90;70.00;;;;;;5017729;28;20575;-76
2023/06/22 12:32:16;;;;;;;0.90;0.90;;;23.90;70.00;;;;;;5003535;28;20034;-76
2023/06/22 12:34:42;;;;;;;0.90;0.90;;;24.00;70.00;;;;;;5003470;28;20046;-77
2023/06/22 12:37:08;;;;;;;0.80;0.80;;;24.00;70.00;;;;;;5004674;28;20049;-76
2023/06/22 12:39:33;;;;;;;1.00;1.00;;;24.00;69.90;;;;;;5003862;28;20064;-75
2023/06/22 12:41:59;;;;;;;1.10;1.00;;;24.00;69.90;;;;;;5005509;28;20133;-76